Terminal Aerodrome Forecast
Issued by NWS

Home | Current Version | Previous Version | Text Only | Print | Product List | Glossary On
Versions: 1 2 3 4 5 6 7 8 9 10 11 12
000
FTUS42 KMLB 281700 RRA
TAFTIX
TAF
KTIX 281745Z 2818/2918 26010KT P6SM VCTS SCT040CB SCT150 SCT250
     FM290000 24006KT P6SM SCT250
     FM291400 27011KT P6SM SCT040 SCT250=

USA.gov is the U.S. government's official web portal to all federal, state and local government web resources and services.